»·PEaware :: DCMMM KMLF-KSNA

DCMMM :: KMLF-KSNA

FLIGHT INFORMATION

Flight Status: Arrived
Operator: Unknown
More flights by this operator :: More flights under this callsign
Pilot: Stefan D. (14429)
Aircraft: DORNIER 228
(D228)
More flights by this aircraft type
Origin: KMLF Milford Mun
United States
Destination: KSNA John Wayne-Orange Co
United States
More flights between these airports :: More routes between these airports
Route: +HEC KAYOH7
File this flight plan on PilotEdge
Remarks:
Altitude:
(Current/Filed)
18,000ft
Speed:
(Current/Filed)
235kts
Departed: 08-Mar-18 12:30 PM
Arrived: 08-Mar-18 02:22 PM
Distance/Time
Traveled:
370nm/1:52
Distance/Time
To Go:
Arrived

Flight Plot

Page will automatically refresh every two minutes.

Flight plan parsing failed; only flown route is shown


Map Options




Map Legend


Flown Route
Filed Route
Departure Airport
Arrival Airport
Navaid (VOR, NDB)
Fix

Horizontal Profiles

Position Reports

Time Latitude Longitude Heading Altitude Ground
Speed
08-Mar-18 12:21 38.419770 -113.010988 303 5042ft 0kts
08-Mar-18 12:22 38.419770 -113.010988 303 5042ft 0kts
08-Mar-18 12:23 38.419770 -113.010988 303 5042ft 0kts
08-Mar-18 12:24 38.419770 -113.010988 303 5042ft 0kts
08-Mar-18 12:25 38.419770 -113.010988 303 5042ft 0kts
08-Mar-18 12:26 38.419770 -113.010988 303 5042ft 0kts
08-Mar-18 12:27 38.419770 -113.010988 303 5042ft 0kts
08-Mar-18 12:28 38.419770 -113.010988 303 5042ft 0kts
08-Mar-18 12:29 38.419770 -113.010988 303 5042ft 0kts
08-Mar-18 12:30 38.419770 -113.010988 303 5042ft 0kts
08-Mar-18 12:31 38.419770 -113.010988 303 5042ft 0kts
08-Mar-18 12:32 38.419770 -113.010988 303 5042ft 0kts
08-Mar-18 12:33 38.419770 -113.010988 303 5042ft 0kts
08-Mar-18 12:34 38.419770 -113.010988 303 5042ft 0kts
08-Mar-18 12:35 38.419836 -113.012521 275 5047ft 9kts
08-Mar-18 12:36 38.420049 -113.013390 354 5048ft 0kts
08-Mar-18 12:37 38.443826 -113.022565 256 5851ft 130kts
08-Mar-18 12:38 38.408261 -113.033436 199 7560ft 142kts
08-Mar-18 12:39 38.371682 -113.053754 211 9464ft 147kts
08-Mar-18 12:40 38.335545 -113.080236 214 11217ft 156kts
08-Mar-18 12:41 38.294178 -113.112258 214 12255ft 187kts
08-Mar-18 12:42 38.248867 -113.147597 215 13264ft 195kts
08-Mar-18 12:43 38.202492 -113.183808 216 14264ft 196kts
08-Mar-18 12:44 38.156179 -113.219931 216 15258ft 195kts
08-Mar-18 12:45 38.110002 -113.255898 217 16250ft 193kts
08-Mar-18 12:46 38.064856 -113.291010 218 17231ft 190kts
08-Mar-18 12:47 38.020324 -113.325606 219 18155ft 189kts
08-Mar-18 12:48 37.971837 -113.363280 218 18175ft 215kts
08-Mar-18 12:49 37.919549 -113.403721 217 18172ft 223kts
08-Mar-18 12:50 37.867290 -113.444093 217 18171ft 225kts
08-Mar-18 12:51 37.814101 -113.485128 217 18170ft 225kts
08-Mar-18 12:52 37.760675 -113.526276 217 18170ft 225kts
08-Mar-18 12:53 37.707403 -113.567241 217 18171ft 225kts
08-Mar-18 12:54 37.654127 -113.608138 217 18173ft 225kts
08-Mar-18 12:55 37.600748 -113.649044 217 18178ft 224kts
08-Mar-18 12:56 37.547986 -113.689410 217 18190ft 226kts
08-Mar-18 12:57 37.494266 -113.730437 217 18192ft 226kts
08-Mar-18 12:58 37.449579 -113.764511 217 18193ft 226kts
08-Mar-18 12:59 37.386759 -113.812334 217 18193ft 226kts
08-Mar-18 13:00 37.333317 -113.852942 217 18193ft 226kts
08-Mar-18 13:01 37.279570 -113.893713 217 18192ft 226kts
08-Mar-18 13:02 37.225886 -113.934367 217 18192ft 226kts
08-Mar-18 13:03 37.181263 -113.968108 217 18192ft 226kts
08-Mar-18 13:04 37.127508 -114.008693 217 18192ft 226kts
08-Mar-18 13:05 37.074003 -114.049001 217 18192ft 225kts
08-Mar-18 13:06 37.020970 -114.088906 217 18191ft 222kts
08-Mar-18 13:07 36.968392 -114.128405 218 18190ft 218kts
08-Mar-18 13:08 36.916756 -114.167142 218 18189ft 216kts
08-Mar-18 13:09 36.866542 -114.204751 218 18190ft 215kts
08-Mar-18 13:10 36.815196 -114.243139 218 18190ft 215kts
08-Mar-18 13:11 36.765715 -114.282569 230 18183ft 209kts
08-Mar-18 13:12 36.725225 -114.334549 231 18173ft 209kts
08-Mar-18 13:13 36.684899 -114.386679 231 18162ft 209kts
08-Mar-18 13:14 36.644628 -114.438696 231 18152ft 209kts
08-Mar-18 13:15 36.604887 -114.489947 231 18142ft 209kts
08-Mar-18 13:16 36.564604 -114.541819 231 18142ft 209kts
08-Mar-18 13:17 36.524312 -114.593618 231 18141ft 208kts
08-Mar-18 13:18 36.484025 -114.645328 231 18140ft 208kts
08-Mar-18 13:19 36.444334 -114.696195 231 18148ft 210kts
08-Mar-18 13:20 36.403790 -114.748069 231 18148ft 210kts
08-Mar-18 13:21 36.363057 -114.800103 231 18148ft 210kts
08-Mar-18 13:22 36.322431 -114.851917 231 18147ft 210kts
08-Mar-18 13:23 36.281697 -114.903787 231 18146ft 210kts
08-Mar-18 13:24 36.241033 -114.955481 231 18146ft 210kts
08-Mar-18 13:25 36.201175 -115.006085 231 18147ft 209kts
08-Mar-18 13:26 36.162379 -115.055256 230 18148ft 209kts
08-Mar-18 13:27 36.123582 -115.104358 230 18128ft 210kts
08-Mar-18 13:28 36.083788 -115.154622 230 18131ft 210kts
08-Mar-18 13:29 36.044004 -115.206065 231 18138ft 209kts
08-Mar-18 13:30 36.002297 -115.255052 225 18138ft 211kts
08-Mar-18 13:31 35.959961 -115.298564 225 18137ft 211kts
08-Mar-18 13:32 35.914881 -115.344578 225 18137ft 211kts
08-Mar-18 13:33 35.870395 -115.389880 225 18140ft 211kts
08-Mar-18 13:34 35.825176 -115.435861 225 18143ft 211kts
08-Mar-18 13:35 35.779951 -115.481779 225 18143ft 211kts
08-Mar-18 13:36 35.734679 -115.527672 225 18142ft 211kts
08-Mar-18 13:37 35.689398 -115.573505 225 18142ft 211kts
08-Mar-18 13:38 35.644154 -115.619236 225 18141ft 211kts
08-Mar-18 13:39 35.599367 -115.664429 224 18149ft 211kts
08-Mar-18 13:40 35.554038 -115.710108 224 18147ft 212kts
08-Mar-18 13:41 35.508496 -115.755927 224 18143ft 212kts
08-Mar-18 13:42 35.462873 -115.801757 224 18139ft 212kts
08-Mar-18 13:43 35.417290 -115.847480 224 18135ft 212kts
08-Mar-18 13:44 35.371703 -115.893137 224 18131ft 212kts
08-Mar-18 13:45 35.325973 -115.938869 224 18128ft 212kts
08-Mar-18 13:46 35.279471 -115.985333 224 17785ft 223kts
08-Mar-18 13:47 35.234113 -116.030539 224 17320ft 227kts
08-Mar-18 13:48 35.185400 -116.079024 223 16817ft 227kts
08-Mar-18 13:49 35.136580 -116.127547 223 16313ft 228kts
08-Mar-18 13:50 35.087371 -116.176375 223 15805ft 230kts
08-Mar-18 13:51 35.038338 -116.224950 223 15291ft 227kts
08-Mar-18 13:52 34.989157 -116.273581 223 14775ft 228kts
08-Mar-18 13:53 34.940009 -116.322120 223 14262ft 228kts
08-Mar-18 13:54 34.891311 -116.370142 223 13757ft 230kts
08-Mar-18 13:55 34.844175 -116.416557 223 13272ft 231kts
08-Mar-18 13:56 34.794614 -116.466211 228 12756ft 230kts
08-Mar-18 13:57 34.749625 -116.521354 228 12243ft 230kts
08-Mar-18 13:58 34.705088 -116.576128 228 12035ft 227kts
08-Mar-18 13:59 34.661821 -116.629286 228 12035ft 226kts
08-Mar-18 14:00 34.620983 -116.679390 227 12037ft 226kts
08-Mar-18 14:01 34.576987 -116.733284 227 12037ft 226kts
08-Mar-18 14:02 34.532740 -116.787397 227 12037ft 226kts
08-Mar-18 14:03 34.488885 -116.840946 227 12037ft 226kts
08-Mar-18 14:04 34.445229 -116.894159 227 12035ft 226kts
08-Mar-18 14:05 34.401239 -116.947685 228 12011ft 226kts
08-Mar-18 14:06 34.357197 -117.001202 229 11971ft 226kts
08-Mar-18 14:07 34.316482 -117.050604 229 11945ft 226kts
08-Mar-18 14:08 34.272819 -117.103493 229 11929ft 226kts
08-Mar-18 14:09 34.209495 -117.121122 193 11926ft 241kts
08-Mar-18 14:10 34.143705 -117.131042 192 11926ft 241kts
08-Mar-18 14:11 34.079904 -117.140506 192 11927ft 241kts
08-Mar-18 14:12 34.013601 -117.150324 192 11762ft 243kts
08-Mar-18 14:13 33.946978 -117.160164 192 11464ft 242kts
08-Mar-18 14:14 33.883846 -117.169477 192 11177ft 240kts
08-Mar-18 14:15 33.824939 -117.178143 192 11052ft 235kts
08-Mar-18 14:16 33.770620 -117.211229 231 10418ft 229kts
08-Mar-18 14:17 33.727787 -117.266014 231 9421ft 224kts
08-Mar-18 14:18 33.686531 -117.319680 231 8412ft 216kts
08-Mar-18 14:19 33.649040 -117.370140 231 8049ft 194kts
08-Mar-18 14:20 33.618154 -117.418830 264 8040ft 185kts
08-Mar-18 14:21 33.618262 -117.480201 269 8047ft 184kts
08-Mar-18 14:22 33.618604 -117.541580 269 8054ft 193kts
08-Mar-18 14:23 33.618884 -117.607998 269 7150ft 208kts
08-Mar-18 14:24 33.633383 -117.669372 290 5988ft 200kts
08-Mar-18 14:25 33.654754 -117.729661 290 4811ft 199kts
08-Mar-18 14:26 33.675386 -117.787907 290 3456ft 167kts
08-Mar-18 14:27 33.691069 -117.830613 288 1658ft 133kts
08-Mar-18 14:28 33.685541 -117.862357 208 227ft 88kts
08-Mar-18 14:29 33.674616 -117.868566 165 61ft 10kts
08-Mar-18 14:30 33.673349 -117.866581 131 61ft 13kts
08-Mar-18 14:31 33.672673 -117.865364 116 61ft 0kts
08-Mar-18 14:32 33.672673 -117.865364 116 61ft 0kts

Navigation Log

Ident Type
Flight plan parsing failed, navigation log unavailable